sensor_id;sensor_type;location;lat;lon;timestamp;P1;durP1;ratioP1;P2;durP2;ratioP2
23072;SDS011;67971;51.046;3.732;2023-07-16T00:01:16;13.35;;;3.60;;
23072;SDS011;67971;51.046;3.732;2023-07-16T00:03:41;9.25;;;3.42;;
23072;SDS011;67971;51.046;3.732;2023-07-16T00:06:07;15.38;;;4.07;;
23072;SDS011;67971;51.046;3.732;2023-07-16T00:08:32;13.90;;;4.05;;
23072;SDS011;67971;51.046;3.732;2023-07-16T00:10:58;19.42;;;4.30;;
23072;SDS011;67971;51.046;3.732;2023-07-16T00:13:24;12.27;;;4.20;;
23072;SDS011;67971;51.046;3.732;2023-07-16T00:15:49;18.23;;;4.45;;
23072;SDS011;67971;51.046;3.732;2023-07-16T00:18:15;8.95;;;3.60;;
23072;SDS011;67971;51.046;3.732;2023-07-16T00:20:40;10.52;;;3.55;;
23072;SDS011;67971;51.046;3.732;2023-07-16T00:23:06;12.90;;;3.90;;
23072;SDS011;67971;51.046;3.732;2023-07-16T00:25:32;18.38;;;4.28;;
23072;SDS011;67971;51.046;3.732;2023-07-16T00:27:57;13.18;;;4.72;;
23072;SDS011;67971;51.046;3.732;2023-07-16T00:30:23;12.63;;;4.35;;
23072;SDS011;67971;51.046;3.732;2023-07-16T00:32:48;14.98;;;5.00;;
23072;SDS011;67971;51.046;3.732;2023-07-16T00:35:14;14.23;;;4.13;;
23072;SDS011;67971;51.046;3.732;2023-07-16T00:37:40;12.50;;;4.22;;
23072;SDS011;67971;51.046;3.732;2023-07-16T00:40:06;13.68;;;4.05;;
23072;SDS011;67971;51.046;3.732;2023-07-16T00:42:32;16.55;;;4.22;;
23072;SDS011;67971;51.046;3.732;2023-07-16T00:44:58;14.98;;;4.32;;
23072;SDS011;67971;51.046;3.732;2023-07-16T00:47:24;21.55;;;5.07;;
23072;SDS011;67971;51.046;3.732;2023-07-16T00:49:49;15.10;;;4.25;;
23072;SDS011;67971;51.046;3.732;2023-07-16T00:52:16;11.10;;;3.53;;
23072;SDS011;67971;51.046;3.732;2023-07-16T00:54:44;12.77;;;3.80;;
23072;SDS011;67971;51.046;3.732;2023-07-16T00:57:10;14.48;;;3.90;;
23072;SDS011;67971;51.046;3.732;2023-07-16T00:59:35;15.13;;;4.18;;
23072;SDS011;67971;51.046;3.732;2023-07-16T01:02:01;11.60;;;4.38;;
23072;SDS011;67971;51.046;3.732;2023-07-16T01:04:27;14.05;;;3.63;;
23072;SDS011;67971;51.046;3.732;2023-07-16T01:06:53;10.98;;;3.65;;
23072;SDS011;67971;51.046;3.732;2023-07-16T01:09:22;10.52;;;4.05;;
23072;SDS011;67971;51.046;3.732;2023-07-16T01:11:49;17.88;;;3.80;;
23072;SDS011;67971;51.046;3.732;2023-07-16T01:14:17;9.70;;;3.47;;
23072;SDS011;67971;51.046;3.732;2023-07-16T01:16:43;10.52;;;3.70;;
23072;SDS011;67971;51.046;3.732;2023-07-16T01:19:10;12.52;;;4.10;;
23072;SDS011;67971;51.046;3.732;2023-07-16T01:22:27;17.48;;;4.70;;
23072;SDS011;67971;51.046;3.732;2023-07-16T01:30:19;16.58;;;5.50;;
23072;SDS011;67971;51.046;3.732;2023-07-16T01:32:49;16.95;;;5.45;;
23072;SDS011;67971;51.046;3.732;2023-07-16T01:35:16;14.35;;;5.18;;
23072;SDS011;67971;51.046;3.732;2023-07-16T01:37:42;12.25;;;4.80;;
23072;SDS011;67971;51.046;3.732;2023-07-16T01:40:08;11.40;;;5.95;;
23072;SDS011;67971;51.046;3.732;2023-07-16T01:42:34;9.90;;;4.68;;
23072;SDS011;67971;51.046;3.732;2023-07-16T01:45:00;14.60;;;5.50;;
23072;SDS011;67971;51.046;3.732;2023-07-16T01:49:54;13.43;;;6.15;;
23072;SDS011;67971;51.046;3.732;2023-07-16T01:52:20;10.82;;;5.32;;
23072;SDS011;67971;51.046;3.732;2023-07-16T01:54:46;10.82;;;4.78;;
23072;SDS011;67971;51.046;3.732;2023-07-16T01:57:12;9.60;;;4.28;;
23072;SDS011;67971;51.046;3.732;2023-07-16T01:59:37;12.07;;;4.32;;
23072;SDS011;67971;51.046;3.732;2023-07-16T02:02:03;9.82;;;3.95;;
23072;SDS011;67971;51.046;3.732;2023-07-16T02:04:29;17.85;;;4.80;;
23072;SDS011;67971;51.046;3.732;2023-07-16T02:06:54;12.68;;;5.05;;
23072;SDS011;67971;51.046;3.732;2023-07-16T02:09:20;11.02;;;4.47;;
23072;SDS011;67971;51.046;3.732;2023-07-16T02:11:46;16.08;;;4.47;;
23072;SDS011;67971;51.046;3.732;2023-07-16T02:14:12;8.40;;;4.38;;
23072;SDS011;67971;51.046;3.732;2023-07-16T02:16:39;11.20;;;4.53;;
23072;SDS011;67971;51.046;3.732;2023-07-16T02:19:04;10.80;;;4.55;;
23072;SDS011;67971;51.046;3.732;2023-07-16T02:21:30;14.43;;;5.25;;
23072;SDS011;67971;51.046;3.732;2023-07-16T02:23:56;9.90;;;4.63;;
23072;SDS011;67971;51.046;3.732;2023-07-16T02:26:22;10.70;;;4.65;;
23072;SDS011;67971;51.046;3.732;2023-07-16T02:28:47;11.52;;;4.90;;
23072;SDS011;67971;51.046;3.732;2023-07-16T02:31:13;7.95;;;4.45;;
23072;SDS011;67971;51.046;3.732;2023-07-16T02:33:39;15.05;;;5.35;;
23072;SDS011;67971;51.046;3.732;2023-07-16T02:36:04;10.95;;;4.82;;
23072;SDS011;67971;51.046;3.732;2023-07-16T02:38:31;13.52;;;5.03;;
23072;SDS011;67971;51.046;3.732;2023-07-16T02:40:57;12.30;;;5.40;;
23072;SDS011;67971;51.046;3.732;2023-07-16T02:43:22;14.40;;;5.47;;
23072;SDS011;67971;51.046;3.732;2023-07-16T02:45:48;14.80;;;5.80;;
23072;SDS011;67971;51.046;3.732;2023-07-16T02:48:14;11.75;;;5.22;;
23072;SDS011;67971;51.046;3.732;2023-07-16T02:50:39;11.20;;;5.80;;
23072;SDS011;67971;51.046;3.732;2023-07-16T02:53:05;12.30;;;5.30;;
23072;SDS011;67971;51.046;3.732;2023-07-16T02:55:32;12.75;;;5.90;;
23072;SDS011;67971;51.046;3.732;2023-07-16T02:57:59;24.45;;;7.00;;
23072;SDS011;67971;51.046;3.732;2023-07-16T03:00:29;12.65;;;6.15;;
23072;SDS011;67971;51.046;3.732;2023-07-16T03:02:57;10.85;;;6.22;;
23072;SDS011;67971;51.046;3.732;2023-07-16T03:05:24;13.48;;;5.88;;
23072;SDS011;67971;51.046;3.732;2023-07-16T03:07:50;10.88;;;5.68;;
23072;SDS011;67971;51.046;3.732;2023-07-16T03:10:16;13.35;;;5.57;;
23072;SDS011;67971;51.046;3.732;2023-07-16T03:12:42;10.70;;;6.28;;
23072;SDS011;67971;51.046;3.732;2023-07-16T03:15:07;14.05;;;6.35;;
23072;SDS011;67971;51.046;3.732;2023-07-16T03:17:33;16.58;;;6.03;;
23072;SDS011;67971;51.046;3.732;2023-07-16T03:19:59;12.88;;;5.93;;
23072;SDS011;67971;51.046;3.732;2023-07-16T03:22:25;8.57;;;5.90;;
23072;SDS011;67971;51.046;3.732;2023-07-16T03:24:50;13.32;;;5.38;;
23072;SDS011;67971;51.046;3.732;2023-07-16T03:27:16;12.40;;;6.32;;
23072;SDS011;67971;51.046;3.732;2023-07-16T03:29:42;17.73;;;6.07;;
23072;SDS011;67971;51.046;3.732;2023-07-16T03:32:07;13.63;;;6.68;;
23072;SDS011;67971;51.046;3.732;2023-07-16T03:34:33;19.40;;;6.40;;
23072;SDS011;67971;51.046;3.732;2023-07-16T03:36:59;14.18;;;6.68;;
23072;SDS011;67971;51.046;3.732;2023-07-16T03:39:24;14.35;;;7.10;;
23072;SDS011;67971;51.046;3.732;2023-07-16T03:41:50;15.45;;;6.78;;
23072;SDS011;67971;51.046;3.732;2023-07-16T03:44:15;13.02;;;6.07;;
23072;SDS011;67971;51.046;3.732;2023-07-16T03:46:41;11.30;;;6.18;;
23072;SDS011;67971;51.046;3.732;2023-07-16T03:49:07;13.50;;;6.85;;
23072;SDS011;67971;51.046;3.732;2023-07-16T03:51:33;10.55;;;6.20;;
23072;SDS011;67971;51.046;3.732;2023-07-16T03:53:59;19.33;;;7.10;;
23072;SDS011;67971;51.046;3.732;2023-07-16T03:56:25;17.50;;;6.88;;
23072;SDS011;67971;51.046;3.732;2023-07-16T03:58:50;12.43;;;6.38;;
23072;SDS011;67971;51.046;3.732;2023-07-16T04:01:16;15.70;;;7.40;;
23072;SDS011;67971;51.046;3.732;2023-07-16T04:03:42;15.13;;;7.28;;
23072;SDS011;67971;51.046;3.732;2023-07-16T04:06:08;15.30;;;7.03;;
23072;SDS011;67971;51.046;3.732;2023-07-16T04:08:34;12.85;;;6.40;;
23072;SDS011;67971;51.046;3.732;2023-07-16T04:11:01;19.27;;;7.95;;
23072;SDS011;67971;51.046;3.732;2023-07-16T04:13:27;17.80;;;8.67;;
23072;SDS011;67971;51.046;3.732;2023-07-16T04:15:53;14.75;;;7.43;;
23072;SDS011;67971;51.046;3.732;2023-07-16T04:18:20;17.23;;;8.63;;
23072;SDS011;67971;51.046;3.732;2023-07-16T04:20:47;20.17;;;8.00;;
23072;SDS011;67971;51.046;3.732;2023-07-16T04:23:12;19.17;;;7.80;;
23072;SDS011;67971;51.046;3.732;2023-07-16T04:25:38;9.13;;;6.45;;
23072;SDS011;67971;51.046;3.732;2023-07-16T04:28:03;14.00;;;7.88;;
23072;SDS011;67971;51.046;3.732;2023-07-16T04:30:29;17.80;;;7.75;;
23072;SDS011;67971;51.046;3.732;2023-07-16T04:32:55;14.85;;;8.00;;
23072;SDS011;67971;51.046;3.732;2023-07-16T04:35:20;20.10;;;8.45;;
23072;SDS011;67971;51.046;3.732;2023-07-16T04:37:46;18.42;;;7.90;;
23072;SDS011;67971;51.046;3.732;2023-07-16T04:40:12;15.30;;;7.63;;
23072;SDS011;67971;51.046;3.732;2023-07-16T04:42:37;15.70;;;7.60;;
23072;SDS011;67971;51.046;3.732;2023-07-16T04:45:03;22.00;;;8.00;;
23072;SDS011;67971;51.046;3.732;2023-07-16T04:47:30;22.20;;;7.93;;
23072;SDS011;67971;51.046;3.732;2023-07-16T04:49:57;16.75;;;7.80;;
23072;SDS011;67971;51.046;3.732;2023-07-16T04:52:23;21.42;;;9.13;;
23072;SDS011;67971;51.046;3.732;2023-07-16T04:54:49;19.52;;;7.72;;
23072;SDS011;67971;51.046;3.732;2023-07-16T04:57:14;18.02;;;7.63;;
23072;SDS011;67971;51.046;3.732;2023-07-16T04:59:40;19.90;;;8.35;;
23072;SDS011;67971;51.046;3.732;2023-07-16T05:02:06;19.05;;;8.02;;
23072;SDS011;67971;51.046;3.732;2023-07-16T05:04:32;14.32;;;7.78;;
23072;SDS011;67971;51.046;3.732;2023-07-16T05:06:58;17.00;;;8.30;;
23072;SDS011;67971;51.046;3.732;2023-07-16T05:09:23;17.13;;;8.23;;
23072;SDS011;67971;51.046;3.732;2023-07-16T05:11:49;14.82;;;7.57;;
23072;SDS011;67971;51.046;3.732;2023-07-16T05:14:15;16.52;;;8.77;;
23072;SDS011;67971;51.046;3.732;2023-07-16T05:16:40;22.08;;;9.48;;
23072;SDS011;67971;51.046;3.732;2023-07-16T05:19:06;21.85;;;8.35;;
23072;SDS011;67971;51.046;3.732;2023-07-16T05:21:31;22.40;;;9.32;;
23072;SDS011;67971;51.046;3.732;2023-07-16T05:23:57;17.52;;;8.70;;
23072;SDS011;67971;51.046;3.732;2023-07-16T05:26:23;19.05;;;8.98;;
23072;SDS011;67971;51.046;3.732;2023-07-16T05:28:48;26.65;;;10.10;;
23072;SDS011;67971;51.046;3.732;2023-07-16T05:31:14;20.02;;;9.32;;
23072;SDS011;67971;51.046;3.732;2023-07-16T05:33:39;24.88;;;9.65;;
23072;SDS011;67971;51.046;3.732;2023-07-16T05:36:05;19.80;;;9.25;;
23072;SDS011;67971;51.046;3.732;2023-07-16T05:38:31;18.27;;;9.35;;
23072;SDS011;67971;51.046;3.732;2023-07-16T05:41:03;19.27;;;9.20;;
23072;SDS011;67971;51.046;3.732;2023-07-16T05:43:30;16.80;;;8.77;;
23072;SDS011;67971;51.046;3.732;2023-07-16T05:45:57;24.10;;;8.15;;
23072;SDS011;67971;51.046;3.732;2023-07-16T05:48:23;21.75;;;9.77;;
23072;SDS011;67971;51.046;3.732;2023-07-16T05:50:49;23.30;;;9.73;;
23072;SDS011;67971;51.046;3.732;2023-07-16T05:53:15;19.15;;;8.90;;
23072;SDS011;67971;51.046;3.732;2023-07-16T05:55:41;21.63;;;9.73;;
23072;SDS011;67971;51.046;3.732;2023-07-16T05:58:07;20.20;;;9.35;;
23072;SDS011;67971;51.046;3.732;2023-07-16T06:00:33;20.15;;;9.95;;
23072;SDS011;67971;51.046;3.732;2023-07-16T06:02:59;18.15;;;9.77;;
23072;SDS011;67971;51.046;3.732;2023-07-16T06:05:26;15.80;;;9.02;;
23072;SDS011;67971;51.046;3.732;2023-07-16T06:07:56;22.33;;;9.57;;
23072;SDS011;67971;51.046;3.732;2023-07-16T06:10:21;19.77;;;9.25;;
23072;SDS011;67971;51.046;3.732;2023-07-16T06:12:47;16.95;;;9.68;;
23072;SDS011;67971;51.046;3.732;2023-07-16T06:15:12;20.58;;;10.45;;
23072;SDS011;67971;51.046;3.732;2023-07-16T06:17:38;18.23;;;9.23;;
23072;SDS011;67971;51.046;3.732;2023-07-16T06:20:04;18.52;;;9.38;;
23072;SDS011;67971;51.046;3.732;2023-07-16T06:22:31;22.67;;;10.48;;
23072;SDS011;67971;51.046;3.732;2023-07-16T06:24:56;20.23;;;9.50;;
23072;SDS011;67971;51.046;3.732;2023-07-16T06:27:22;24.23;;;10.43;;
23072;SDS011;67971;51.046;3.732;2023-07-16T06:29:48;21.30;;;9.45;;
23072;SDS011;67971;51.046;3.732;2023-07-16T06:32:13;22.63;;;10.05;;
23072;SDS011;67971;51.046;3.732;2023-07-16T06:34:39;29.08;;;9.55;;
23072;SDS011;67971;51.046;3.732;2023-07-16T06:37:05;20.17;;;9.50;;
23072;SDS011;67971;51.046;3.732;2023-07-16T06:39:31;24.55;;;10.73;;
23072;SDS011;67971;51.046;3.732;2023-07-16T06:41:57;16.95;;;9.07;;
23072;SDS011;67971;51.046;3.732;2023-07-16T06:44:22;24.15;;;10.20;;
23072;SDS011;67971;51.046;3.732;2023-07-16T06:46:48;26.73;;;10.45;;
23072;SDS011;67971;51.046;3.732;2023-07-16T06:49:14;15.40;;;10.07;;
23072;SDS011;67971;51.046;3.732;2023-07-16T06:51:40;25.77;;;10.90;;
23072;SDS011;67971;51.046;3.732;2023-07-16T06:54:06;25.05;;;10.32;;
23072;SDS011;67971;51.046;3.732;2023-07-16T06:56:32;22.30;;;9.27;;
23072;SDS011;67971;51.046;3.732;2023-07-16T06:58:58;20.80;;;9.68;;
23072;SDS011;67971;51.046;3.732;2023-07-16T07:01:23;25.15;;;9.57;;
23072;SDS011;67971;51.046;3.732;2023-07-16T07:03:49;21.38;;;10.05;;
23072;SDS011;67971;51.046;3.732;2023-07-16T07:06:15;28.15;;;9.93;;
23072;SDS011;67971;51.046;3.732;2023-07-16T07:08:40;24.60;;;9.95;;
23072;SDS011;67971;51.046;3.732;2023-07-16T07:11:06;19.48;;;10.38;;
23072;SDS011;67971;51.046;3.732;2023-07-16T07:13:32;20.42;;;9.70;;
23072;SDS011;67971;51.046;3.732;2023-07-16T07:15:57;18.60;;;8.88;;
23072;SDS011;67971;51.046;3.732;2023-07-16T07:18:23;16.38;;;9.07;;
23072;SDS011;67971;51.046;3.732;2023-07-16T07:20:49;21.13;;;9.20;;
23072;SDS011;67971;51.046;3.732;2023-07-16T07:23:15;22.27;;;9.20;;
23072;SDS011;67971;51.046;3.732;2023-07-16T07:25:40;20.42;;;9.88;;
23072;SDS011;67971;51.046;3.732;2023-07-16T07:28:06;19.48;;;9.82;;
23072;SDS011;67971;51.046;3.732;2023-07-16T07:30:32;17.90;;;8.43;;
23072;SDS011;67971;51.046;3.732;2023-07-16T07:32:58;16.23;;;8.38;;
23072;SDS011;67971;51.046;3.732;2023-07-16T07:35:24;22.40;;;8.68;;
23072;SDS011;67971;51.046;3.732;2023-07-16T07:37:49;21.38;;;8.98;;
23072;SDS011;67971;51.046;3.732;2023-07-16T07:40:15;23.75;;;9.30;;
23072;SDS011;67971;51.046;3.732;2023-07-16T07:42:41;16.95;;;8.55;;
23072;SDS011;67971;51.046;3.732;2023-07-16T07:45:06;20.77;;;8.52;;
23072;SDS011;67971;51.046;3.732;2023-07-16T07:47:32;23.52;;;9.05;;
23072;SDS011;67971;51.046;3.732;2023-07-16T07:49:58;25.17;;;9.98;;
23072;SDS011;67971;51.046;3.732;2023-07-16T07:52:23;23.77;;;9.93;;
23072;SDS011;67971;51.046;3.732;2023-07-16T07:54:49;18.88;;;8.50;;
23072;SDS011;67971;51.046;3.732;2023-07-16T07:57:15;21.67;;;8.63;;
23072;SDS011;67971;51.046;3.732;2023-07-16T07:59:40;16.92;;;8.35;;
23072;SDS011;67971;51.046;3.732;2023-07-16T08:02:06;16.27;;;8.57;;
23072;SDS011;67971;51.046;3.732;2023-07-16T08:04:31;17.40;;;7.18;;
23072;SDS011;67971;51.046;3.732;2023-07-16T08:06:57;17.33;;;8.30;;
23072;SDS011;67971;51.046;3.732;2023-07-16T08:09:23;18.65;;;8.25;;
23072;SDS011;67971;51.046;3.732;2023-07-16T08:11:50;22.30;;;8.65;;
23072;SDS011;67971;51.046;3.732;2023-07-16T08:14:16;14.73;;;8.57;;
23072;SDS011;67971;51.046;3.732;2023-07-16T08:16:42;18.15;;;8.18;;
23072;SDS011;67971;51.046;3.732;2023-07-16T08:19:07;14.75;;;8.50;;
23072;SDS011;67971;51.046;3.732;2023-07-16T08:21:34;30.40;;;8.48;;
23072;SDS011;67971;51.046;3.732;2023-07-16T08:24:01;15.93;;;8.63;;
23072;SDS011;67971;51.046;3.732;2023-07-16T08:26:26;18.08;;;8.90;;
23072;SDS011;67971;51.046;3.732;2023-07-16T08:28:52;15.95;;;8.27;;
23072;SDS011;67971;51.046;3.732;2023-07-16T08:31:18;22.30;;;8.90;;
23072;SDS011;67971;51.046;3.732;2023-07-16T08:33:43;18.13;;;7.25;;
23072;SDS011;67971;51.046;3.732;2023-07-16T08:36:09;14.60;;;8.23;;
23072;SDS011;67971;51.046;3.732;2023-07-16T08:38:35;22.02;;;8.88;;
23072;SDS011;67971;51.046;3.732;2023-07-16T08:41:00;16.40;;;7.95;;
23072;SDS011;67971;51.046;3.732;2023-07-16T08:43:26;19.50;;;7.47;;
23072;SDS011;67971;51.046;3.732;2023-07-16T08:45:54;17.58;;;7.10;;
23072;SDS011;67971;51.046;3.732;2023-07-16T08:48:20;20.90;;;8.25;;
23072;SDS011;67971;51.046;3.732;2023-07-16T08:50:48;12.75;;;7.75;;
23072;SDS011;67971;51.046;3.732;2023-07-16T08:53:17;18.92;;;8.05;;
23072;SDS011;67971;51.046;3.732;2023-07-16T08:55:44;16.23;;;8.35;;
23072;SDS011;67971;51.046;3.732;2023-07-16T08:58:13;20.45;;;7.85;;
23072;SDS011;67971;51.046;3.732;2023-07-16T09:00:40;16.23;;;8.50;;
23072;SDS011;67971;51.046;3.732;2023-07-16T09:03:09;19.33;;;8.65;;
23072;SDS011;67971;51.046;3.732;2023-07-16T09:05:37;17.92;;;7.93;;
23072;SDS011;67971;51.046;3.732;2023-07-16T09:08:03;16.83;;;8.13;;
23072;SDS011;67971;51.046;3.732;2023-07-16T09:10:29;18.85;;;8.15;;
23072;SDS011;67971;51.046;3.732;2023-07-16T09:12:57;22.70;;;7.80;;
23072;SDS011;67971;51.046;3.732;2023-07-16T09:15:23;21.27;;;8.70;;
23072;SDS011;67971;51.046;3.732;2023-07-16T09:17:49;15.27;;;7.60;;
23072;SDS011;67971;51.046;3.732;2023-07-16T09:20:15;16.92;;;7.03;;
23072;SDS011;67971;51.046;3.732;2023-07-16T09:22:42;18.25;;;7.38;;
23072;SDS011;67971;51.046;3.732;2023-07-16T09:25:08;13.93;;;8.07;;
23072;SDS011;67971;51.046;3.732;2023-07-16T09:27:34;18.92;;;7.70;;
23072;SDS011;67971;51.046;3.732;2023-07-16T09:30:00;21.05;;;7.93;;
23072;SDS011;67971;51.046;3.732;2023-07-16T09:32:35;15.57;;;7.15;;
23072;SDS011;67971;51.046;3.732;2023-07-16T09:35:14;12.68;;;5.22;;
23072;SDS011;67971;51.046;3.732;2023-07-16T09:37:41;7.82;;;3.13;;
23072;SDS011;67971;51.046;3.732;2023-07-16T09:40:08;6.85;;;3.38;;
23072;SDS011;67971;51.046;3.732;2023-07-16T09:42:39;7.18;;;3.35;;
23072;SDS011;67971;51.046;3.732;2023-07-16T09:45:07;6.47;;;3.03;;
23072;SDS011;67971;51.046;3.732;2023-07-16T09:47:36;10.55;;;3.50;;
23072;SDS011;67971;51.046;3.732;2023-07-16T09:50:02;6.65;;;2.47;;
23072;SDS011;67971;51.046;3.732;2023-07-16T09:52:31;5.72;;;2.45;;
23072;SDS011;67971;51.046;3.732;2023-07-16T09:54:59;8.60;;;2.70;;
23072;SDS011;67971;51.046;3.732;2023-07-16T09:57:27;5.70;;;2.10;;
23072;SDS011;67971;51.046;3.732;2023-07-16T09:59:58;5.35;;;2.03;;
23072;SDS011;67971;51.046;3.732;2023-07-16T10:02:29;4.13;;;2.05;;
23072;SDS011;67971;51.046;3.732;2023-07-16T10:04:58;6.88;;;2.15;;
23072;SDS011;67971;51.046;3.732;2023-07-16T10:07:24;5.80;;;2.70;;
23072;SDS011;67971;51.046;3.732;2023-07-16T10:09:55;7.15;;;2.70;;
23072;SDS011;67971;51.046;3.732;2023-07-16T10:12:23;6.97;;;2.38;;
23072;SDS011;67971;51.046;3.732;2023-07-16T10:14:50;6.13;;;2.20;;
23072;SDS011;67971;51.046;3.732;2023-07-16T10:17:18;8.27;;;2.40;;
23072;SDS011;67971;51.046;3.732;2023-07-16T10:19:48;7.25;;;2.28;;
23072;SDS011;67971;51.046;3.732;2023-07-16T10:22:17;4.15;;;1.83;;
23072;SDS011;67971;51.046;3.732;2023-07-16T10:24:44;6.80;;;1.95;;
23072;SDS011;67971;51.046;3.732;2023-07-16T10:27:25;6.78;;;1.38;;
23072;SDS011;67971;51.046;3.732;2023-07-16T10:29:53;4.97;;;2.20;;
23072;SDS011;67971;51.046;3.732;2023-07-16T10:32:20;4.80;;;1.90;;
23072;SDS011;67971;51.046;3.732;2023-07-16T10:34:46;6.75;;;2.53;;
23072;SDS011;67971;51.046;3.732;2023-07-16T10:37:11;3.72;;;1.83;;
23072;SDS011;67971;51.046;3.732;2023-07-16T10:39:45;5.32;;;2.60;;
23072;SDS011;67971;51.046;3.732;2023-07-16T10:42:18;5.53;;;2.20;;
23072;SDS011;67971;51.046;3.732;2023-07-16T10:44:45;5.63;;;1.65;;
23072;SDS011;67971;51.046;3.732;2023-07-16T10:47:33;7.70;;;1.75;;
23072;SDS011;67971;51.046;3.732;2023-07-16T10:50:02;5.05;;;2.00;;
23072;SDS011;67971;51.046;3.732;2023-07-16T10:52:33;5.35;;;2.22;;
23072;SDS011;67971;51.046;3.732;2023-07-16T10:54:59;7.90;;;3.10;;
23072;SDS011;67971;51.046;3.732;2023-07-16T10:57:25;6.82;;;2.30;;
23072;SDS011;67971;51.046;3.732;2023-07-16T10:59:51;7.95;;;3.00;;
23072;SDS011;67971;51.046;3.732;2023-07-16T11:02:18;6.03;;;2.58;;
23072;SDS011;67971;51.046;3.732;2023-07-16T11:04:45;6.88;;;3.00;;
23072;SDS011;67971;51.046;3.732;2023-07-16T11:07:12;6.30;;;2.85;;
23072;SDS011;67971;51.046;3.732;2023-07-16T11:09:42;7.85;;;2.90;;
23072;SDS011;67971;51.046;3.732;2023-07-16T11:12:09;6.03;;;2.60;;
23072;SDS011;67971;51.046;3.732;2023-07-16T11:14:41;6.43;;;2.45;;
23072;SDS011;67971;51.046;3.732;2023-07-16T11:17:27;9.35;;;2.53;;
23072;SDS011;67971;51.046;3.732;2023-07-16T11:19:54;5.93;;;2.83;;
23072;SDS011;67971;51.046;3.732;2023-07-16T11:22:24;5.80;;;2.40;;
23072;SDS011;67971;51.046;3.732;2023-07-16T11:24:51;10.98;;;3.42;;
23072;SDS011;67971;51.046;3.732;2023-07-16T11:27:19;10.02;;;3.10;;
23072;SDS011;67971;51.046;3.732;2023-07-16T11:29:50;6.78;;;3.13;;
23072;SDS011;67971;51.046;3.732;2023-07-16T11:32:33;7.72;;;3.00;;
23072;SDS011;67971;51.046;3.732;2023-07-16T11:35:00;5.32;;;2.65;;
23072;SDS011;67971;51.046;3.732;2023-07-16T11:37:27;7.05;;;3.10;;
23072;SDS011;67971;51.046;3.732;2023-07-16T11:39:57;9.65;;;3.42;;
23072;SDS011;67971;51.046;3.732;2023-07-16T11:42:34;10.23;;;3.72;;
23072;SDS011;67971;51.046;3.732;2023-07-16T11:45:01;9.90;;;3.15;;
23072;SDS011;67971;51.046;3.732;2023-07-16T11:47:28;9.98;;;3.28;;
23072;SDS011;67971;51.046;3.732;2023-07-16T11:49:54;9.32;;;2.92;;
23072;SDS011;67971;51.046;3.732;2023-07-16T11:52:29;10.55;;;3.40;;
23072;SDS011;67971;51.046;3.732;2023-07-16T11:54:56;7.72;;;3.13;;
23072;SDS011;67971;51.046;3.732;2023-07-16T11:57:24;12.98;;;4.07;;
23072;SDS011;67971;51.046;3.732;2023-07-16T11:59:50;5.75;;;3.13;;
23072;SDS011;67971;51.046;3.732;2023-07-16T12:02:16;8.40;;;3.42;;
23072;SDS011;67971;51.046;3.732;2023-07-16T12:04:41;11.38;;;3.38;;
23072;SDS011;67971;51.046;3.732;2023-07-16T12:07:07;6.00;;;3.10;;
23072;SDS011;67971;51.046;3.732;2023-07-16T12:09:33;6.85;;;3.20;;
23072;SDS011;67971;51.046;3.732;2023-07-16T12:11:59;7.75;;;2.92;;
23072;SDS011;67971;51.046;3.732;2023-07-16T12:14:25;9.18;;;3.20;;
23072;SDS011;67971;51.046;3.732;2023-07-16T12:16:50;7.50;;;3.33;;
23072;SDS011;67971;51.046;3.732;2023-07-16T12:19:16;9.00;;;2.80;;
23072;SDS011;67971;51.046;3.732;2023-07-16T12:21:42;9.60;;;3.47;;
23072;SDS011;67971;51.046;3.732;2023-07-16T12:24:08;9.80;;;3.20;;
23072;SDS011;67971;51.046;3.732;2023-07-16T12:26:33;7.30;;;2.78;;
23072;SDS011;67971;51.046;3.732;2023-07-16T12:28:59;6.07;;;2.92;;
23072;SDS011;67971;51.046;3.732;2023-07-16T12:31:28;5.28;;;2.75;;
23072;SDS011;67971;51.046;3.732;2023-07-16T12:33:55;7.38;;;2.88;;
23072;SDS011;67971;51.046;3.732;2023-07-16T12:36:20;4.13;;;2.72;;
23072;SDS011;67971;51.046;3.732;2023-07-16T12:38:46;6.78;;;2.67;;
23072;SDS011;67971;51.046;3.732;2023-07-16T12:41:11;8.85;;;2.63;;
23072;SDS011;67971;51.046;3.732;2023-07-16T12:43:37;5.47;;;2.45;;
23072;SDS011;67971;51.046;3.732;2023-07-16T12:46:04;11.38;;;3.03;;
23072;SDS011;67971;51.046;3.732;2023-07-16T12:48:30;6.90;;;3.03;;
23072;SDS011;67971;51.046;3.732;2023-07-16T12:50:56;6.07;;;3.00;;
23072;SDS011;67971;51.046;3.732;2023-07-16T12:53:22;8.70;;;2.78;;
23072;SDS011;67971;51.046;3.732;2023-07-16T12:55:48;10.07;;;2.40;;
23072;SDS011;67971;51.046;3.732;2023-07-16T12:58:14;7.22;;;3.08;;
23072;SDS011;67971;51.046;3.732;2023-07-16T13:00:40;7.75;;;2.67;;
23072;SDS011;67971;51.046;3.732;2023-07-16T13:03:05;8.05;;;2.60;;
23072;SDS011;67971;51.046;3.732;2023-07-16T13:05:35;7.15;;;3.20;;
23072;SDS011;67971;51.046;3.732;2023-07-16T13:08:00;9.32;;;2.92;;
23072;SDS011;67971;51.046;3.732;2023-07-16T13:10:26;6.97;;;2.58;;
23072;SDS011;67971;51.046;3.732;2023-07-16T13:12:52;7.00;;;3.30;;
23072;SDS011;67971;51.046;3.732;2023-07-16T13:15:17;7.95;;;3.85;;
23072;SDS011;67971;51.046;3.732;2023-07-16T13:17:43;11.35;;;2.70;;
23072;SDS011;67971;51.046;3.732;2023-07-16T13:20:08;6.38;;;2.70;;
23072;SDS011;67971;51.046;3.732;2023-07-16T13:22:35;5.10;;;2.35;;
23072;SDS011;67971;51.046;3.732;2023-07-16T13:25:01;8.30;;;2.30;;
23072;SDS011;67971;51.046;3.732;2023-07-16T13:27:26;6.70;;;2.33;;
23072;SDS011;67971;51.046;3.732;2023-07-16T13:29:52;7.72;;;2.88;;
23072;SDS011;67971;51.046;3.732;2023-07-16T13:32:17;7.10;;;2.70;;
23072;SDS011;67971;51.046;3.732;2023-07-16T13:34:43;8.15;;;2.90;;
23072;SDS011;67971;51.046;3.732;2023-07-16T13:37:09;8.63;;;2.50;;
23072;SDS011;67971;51.046;3.732;2023-07-16T13:39:35;6.03;;;2.97;;
23072;SDS011;67971;51.046;3.732;2023-07-16T13:42:00;7.85;;;3.55;;
23072;SDS011;67971;51.046;3.732;2023-07-16T13:44:26;7.47;;;3.03;;
23072;SDS011;67971;51.046;3.732;2023-07-16T13:46:52;5.07;;;2.80;;
23072;SDS011;67971;51.046;3.732;2023-07-16T13:49:17;10.02;;;2.80;;
23072;SDS011;67971;51.046;3.732;2023-07-16T13:51:43;10.10;;;3.08;;
23072;SDS011;67971;51.046;3.732;2023-07-16T13:54:10;7.25;;;3.03;;
23072;SDS011;67971;51.046;3.732;2023-07-16T13:56:36;8.45;;;3.05;;
23072;SDS011;67971;51.046;3.732;2023-07-16T13:59:02;7.13;;;2.75;;
23072;SDS011;67971;51.046;3.732;2023-07-16T14:01:28;6.93;;;2.80;;
23072;SDS011;67971;51.046;3.732;2023-07-16T14:03:54;5.53;;;3.08;;
23072;SDS011;67971;51.046;3.732;2023-07-16T14:06:20;7.88;;;2.53;;
23072;SDS011;67971;51.046;3.732;2023-07-16T14:08:46;4.72;;;2.17;;
23072;SDS011;67971;51.046;3.732;2023-07-16T14:11:11;2.92;;;2.13;;
23072;SDS011;67971;51.046;3.732;2023-07-16T14:13:37;5.25;;;2.40;;
23072;SDS011;67971;51.046;3.732;2023-07-16T14:16:03;4.80;;;2.17;;
23072;SDS011;67971;51.046;3.732;2023-07-16T14:18:30;3.75;;;2.30;;
23072;SDS011;67971;51.046;3.732;2023-07-16T14:20:56;6.13;;;2.22;;
23072;SDS011;67971;51.046;3.732;2023-07-16T14:23:21;4.50;;;1.90;;
23072;SDS011;67971;51.046;3.732;2023-07-16T14:25:47;9.00;;;2.22;;
23072;SDS011;67971;51.046;3.732;2023-07-16T14:28:12;4.85;;;2.40;;
23072;SDS011;67971;51.046;3.732;2023-07-16T14:30:38;5.57;;;2.30;;
23072;SDS011;67971;51.046;3.732;2023-07-16T14:33:04;5.55;;;2.08;;
23072;SDS011;67971;51.046;3.732;2023-07-16T14:35:30;4.03;;;2.00;;
23072;SDS011;67971;51.046;3.732;2023-07-16T14:37:56;4.22;;;2.03;;
23072;SDS011;67971;51.046;3.732;2023-07-16T14:40:22;6.70;;;2.30;;
23072;SDS011;67971;51.046;3.732;2023-07-16T14:42:47;6.13;;;2.13;;